createdAt,value
2019-05-09T00:00:30.230Z,1.87
2019-05-09T00:02:39.219Z,2.43
2019-05-09T00:04:45.192Z,3.00
2019-05-09T00:06:51.064Z,1.43
2019-05-09T00:08:55.824Z,1.17
2019-05-09T00:11:00.748Z,0.70
2019-05-09T00:13:05.674Z,1.03
2019-05-09T00:15:10.413Z,0.90
2019-05-09T00:17:15.395Z,0.80
2019-05-09T00:19:20.608Z,1.17
2019-05-09T00:21:33.252Z,1.40
2019-05-09T00:23:43.584Z,1.30
2019-05-09T00:25:47.774Z,0.97
2019-05-09T00:27:55.320Z,1.23
2019-05-09T00:30:00.431Z,2.60
2019-05-09T00:32:10.137Z,1.37
2019-05-09T00:34:23.420Z,0.97
2019-05-09T00:36:28.604Z,1.10
2019-05-09T00:38:43.336Z,1.30
2019-05-09T00:40:56.036Z,1.37
2019-05-09T00:42:54.999Z,1.57
2019-05-09T00:45:01.373Z,1.37
2019-05-09T00:47:07.933Z,1.20
2019-05-09T00:49:14.254Z,1.20
2019-05-09T00:51:19.313Z,2.37
2019-05-09T00:53:27.054Z,1.17
2019-05-09T00:55:33.283Z,1.70
2019-05-09T00:57:38.330Z,1.23
2019-05-09T00:59:44.606Z,0.97
2019-05-09T01:01:49.631Z,1.10
2019-05-09T01:03:55.882Z,1.23
2019-05-09T01:06:04.193Z,1.10
2019-05-09T01:08:13.746Z,0.80
2019-05-09T01:10:18.881Z,0.87
2019-05-09T01:12:23.779Z,1.10
2019-05-09T01:14:28.709Z,0.67
2019-05-09T01:16:33.710Z,1.20
2019-05-09T01:18:38.468Z,1.00
2019-05-09T01:20:44.068Z,0.73
2019-05-09T01:22:49.145Z,1.10
2019-05-09T01:24:56.795Z,1.97
2019-05-09T01:27:03.579Z,0.77
2019-05-09T01:29:08.117Z,0.87
2019-05-09T01:31:13.391Z,1.10
2019-05-09T01:33:20.104Z,1.33
2019-05-09T01:35:26.553Z,1.10
2019-05-09T01:37:34.030Z,1.13
2019-05-09T01:39:37.826Z,0.90
2019-05-09T01:41:43.633Z,0.80
2019-05-09T01:43:48.501Z,1.10
2019-05-09T01:45:54.088Z,0.67
2019-05-09T01:47:59.034Z,1.50
2019-05-09T01:50:05.218Z,0.70
2019-05-09T01:52:13.575Z,0.83
2019-05-09T01:54:19.832Z,0.70
2019-05-09T01:56:25.531Z,1.27
2019-05-09T01:58:34.305Z,1.90
2019-05-09T02:00:40.377Z,0.63
2019-05-09T02:02:45.236Z,1.33
2019-05-09T02:04:50.117Z,0.60
2019-05-09T02:06:55.027Z,0.53
2019-05-09T02:09:00.177Z,0.63
2019-05-09T02:11:05.398Z,0.70
2019-05-09T02:13:13.726Z,0.63
2019-05-09T02:15:23.679Z,1.63
2019-05-09T02:17:39.792Z,1.27
2019-05-09T02:19:46.746Z,0.93
2019-05-09T02:22:29.683Z,1.73
2019-05-09T02:24:35.295Z,0.90
2019-05-09T02:26:40.202Z,0.80
2019-05-09T02:28:48.454Z,0.70
2019-05-09T02:30:55.091Z,1.97
2019-05-09T02:33:00.247Z,1.50
2019-05-09T02:35:09.468Z,1.10
2019-05-09T02:37:18.550Z,1.07
2019-05-09T02:39:22.285Z,0.40
2019-05-09T02:41:28.686Z,1.63
2019-05-09T02:43:34.113Z,0.57
2019-05-09T02:45:52.313Z,0.43
2019-05-09T02:47:54.328Z,0.53
2019-05-09T02:50:00.162Z,1.10
2019-05-09T02:52:08.779Z,0.77
2019-05-09T02:54:13.499Z,0.80
2019-05-09T02:56:20.106Z,0.57
2019-05-09T02:58:28.183Z,1.37
2019-05-09T03:00:35.702Z,1.10
2019-05-09T03:02:42.958Z,1.90
2019-05-09T03:04:49.619Z,1.47
2019-05-09T03:06:55.248Z,0.70
2019-05-09T03:09:00.691Z,1.30
2019-05-09T03:11:09.735Z,1.27
2019-05-09T03:13:13.982Z,0.47
2019-05-09T03:15:19.708Z,1.23
2019-05-09T03:17:29.763Z,0.57
2019-05-09T03:19:34.797Z,1.83
2019-05-09T03:21:59.926Z,1.30
2019-05-09T03:24:05.194Z,0.23
2019-05-09T03:26:13.103Z,0.50
2019-05-09T03:28:23.682Z,0.67
2019-05-09T03:30:42.233Z,1.70
2019-05-09T03:32:53.062Z,1.03
2019-05-09T03:34:58.112Z,0.50
2019-05-09T03:37:03.055Z,0.97
2019-05-09T03:39:12.166Z,0.70
2019-05-09T03:41:17.730Z,1.30
2019-05-09T03:43:22.895Z,1.90
2019-05-09T03:45:27.662Z,0.93
2019-05-09T03:47:34.098Z,0.40
2019-05-09T03:49:39.148Z,0.40
2019-05-09T03:51:48.233Z,1.00
2019-05-09T03:53:53.068Z,0.50
2019-05-09T03:55:59.662Z,1.60
2019-05-09T03:58:07.481Z,0.50
2019-05-09T04:00:12.996Z,1.50
2019-05-09T04:02:19.860Z,1.70
2019-05-09T04:04:28.213Z,1.47
2019-05-09T04:06:33.278Z,2.30
2019-05-09T04:08:38.110Z,0.90
2019-05-09T04:10:43.442Z,0.63
2019-05-09T04:12:55.830Z,0.90
2019-05-09T04:14:58.340Z,1.23
2019-05-09T04:17:04.276Z,1.47
2019-05-09T04:19:09.986Z,0.63
2019-05-09T04:21:17.443Z,0.80
2019-05-09T04:23:27.569Z,0.93
2019-05-09T04:25:34.467Z,0.60
2019-05-09T04:27:41.603Z,0.70
2019-05-09T04:29:48.430Z,1.07
2019-05-09T04:31:54.211Z,1.90
2019-05-09T04:34:00.140Z,0.73
2019-05-09T04:36:05.050Z,1.37
2019-05-09T04:38:10.722Z,2.73
2019-05-09T04:40:19.614Z,0.70
2019-05-09T04:42:24.740Z,0.70
2019-05-09T04:44:37.576Z,1.80
2019-05-09T04:46:42.935Z,1.13
2019-05-09T04:48:48.145Z,0.50
2019-05-09T04:50:59.298Z,0.40
2019-05-09T04:53:04.634Z,1.17
2019-05-09T04:55:12.639Z,0.80
2019-05-09T04:57:20.901Z,0.60
2019-05-09T04:59:28.530Z,1.67
2019-05-09T05:01:52.712Z,0.60
2019-05-09T05:03:59.734Z,1.10
2019-05-09T05:06:07.689Z,1.43
2019-05-09T05:08:18.177Z,0.50
2019-05-09T05:10:27.347Z,1.13
2019-05-09T05:12:33.124Z,0.80
2019-05-09T05:14:38.627Z,0.50
2019-05-09T05:16:43.427Z,0.67
2019-05-09T05:18:50.914Z,1.40
2019-05-09T05:20:57.600Z,0.80
2019-05-09T05:23:04.814Z,0.53
2019-05-09T05:25:09.687Z,1.10
2019-05-09T05:27:14.440Z,0.83
2019-05-09T05:29:22.475Z,1.00
2019-05-09T05:31:28.496Z,1.23
2019-05-09T05:33:38.380Z,1.53
2019-05-09T05:35:44.819Z,0.83
2019-05-09T05:37:49.822Z,0.60
2019-05-09T05:39:54.603Z,0.80
2019-05-09T05:41:59.341Z,0.77
2019-05-09T05:44:04.129Z,0.80
2019-05-09T05:46:10.516Z,0.80
2019-05-09T05:48:23.149Z,0.73
2019-05-09T05:50:28.214Z,1.03
2019-05-09T05:52:33.189Z,0.73
2019-05-09T05:54:38.906Z,1.47
2019-05-09T05:56:43.702Z,2.30
2019-05-09T05:58:49.035Z,1.23
2019-05-09T06:00:53.855Z,2.20
2019-05-09T06:02:58.930Z,1.90
2019-05-09T06:05:05.342Z,1.30
2019-05-09T06:07:10.174Z,1.27
2019-05-09T06:09:14.926Z,1.03
2019-05-09T06:11:19.705Z,1.50
2019-05-09T06:13:24.444Z,0.60
2019-05-09T06:15:29.134Z,0.40
2019-05-09T06:17:33.901Z,1.07
2019-05-09T06:19:38.662Z,0.80
2019-05-09T06:21:45.088Z,1.33
2019-05-09T06:23:49.844Z,1.70
2019-05-09T06:25:54.610Z,1.00
2019-05-09T06:28:04.012Z,1.87
2019-05-09T06:30:08.856Z,1.93
2019-05-09T06:32:13.676Z,0.70
2019-05-09T06:34:19.519Z,1.27
2019-05-09T06:36:24.286Z,0.50
2019-05-09T06:38:29.011Z,2.43
2019-05-09T06:40:38.303Z,6.27
2019-05-09T06:42:42.839Z,0.50
2019-05-09T06:44:55.469Z,0.93
2019-05-09T06:47:10.680Z,1.00
2019-05-09T06:49:27.662Z,1.63
2019-05-09T06:51:23.533Z,0.90
2019-05-09T06:53:28.271Z,0.83
2019-05-09T06:55:33.057Z,1.30
2019-05-09T06:57:42.180Z,1.97
2019-05-09T06:59:44.147Z,0.87
2019-05-09T07:01:50.556Z,0.93
2019-05-09T07:03:59.934Z,1.37
2019-05-09T07:06:08.466Z,1.73
2019-05-09T07:08:18.253Z,2.67
2019-05-09T07:10:22.789Z,1.73
2019-05-09T07:12:28.576Z,0.97
2019-05-09T07:14:40.994Z,1.13
2019-05-09T07:16:43.011Z,2.60
2019-05-09T07:18:48.449Z,1.33
2019-05-09T07:20:53.278Z,2.50
2019-05-09T07:22:58.412Z,0.93
2019-05-09T07:25:10.224Z,1.50
2019-05-09T07:27:11.967Z,1.37
2019-05-09T07:29:17.833Z,1.73
2019-05-09T07:31:29.706Z,2.70
2019-05-09T07:33:53.128Z,0.57
2019-05-09T07:35:58.214Z,1.90
2019-05-09T07:38:02.971Z,1.30
2019-05-09T07:40:08.390Z,2.57
2019-05-09T07:42:18.004Z,0.40
2019-05-09T07:44:22.988Z,0.73
2019-05-09T07:46:29.431Z,1.67
2019-05-09T07:48:34.146Z,2.60
2019-05-09T07:50:39.099Z,1.43
2019-05-09T07:52:45.370Z,1.20
2019-05-09T07:54:51.348Z,1.63
2019-05-09T07:56:57.993Z,1.43
2019-05-09T07:59:02.525Z,1.30
2019-05-09T08:01:08.646Z,1.33
2019-05-09T08:03:13.643Z,1.30
2019-05-09T08:05:27.962Z,0.83
2019-05-09T08:07:37.885Z,2.73
2019-05-09T08:09:42.020Z,1.27
2019-05-09T08:11:48.294Z,0.73
2019-05-09T08:13:53.207Z,2.77
2019-05-09T08:16:00.884Z,1.47
2019-05-09T08:18:08.071Z,0.80
2019-05-09T08:20:13.817Z,0.63
2019-05-09T08:22:24.645Z,0.73
2019-05-09T08:24:24.932Z,2.53
2019-05-09T08:26:30.191Z,1.93
2019-05-09T08:28:34.984Z,2.80
2019-05-09T08:30:40.527Z,2.10
2019-05-09T08:32:47.995Z,1.00
2019-05-09T08:34:51.821Z,2.40
2019-05-09T08:36:58.021Z,0.73
2019-05-09T08:39:04.684Z,0.90
2019-05-09T08:41:10.662Z,1.50
2019-05-09T08:43:17.881Z,0.47
2019-05-09T08:45:27.524Z,0.67
2019-05-09T08:47:28.192Z,1.73
2019-05-09T08:49:34.600Z,1.70
2019-05-09T08:52:06.788Z,0.80
2019-05-09T08:53:53.580Z,0.87
2019-05-09T08:55:58.375Z,0.93
2019-05-09T08:58:03.127Z,1.27
2019-05-09T09:00:09.133Z,1.37
2019-05-09T09:02:18.480Z,1.03
2019-05-09T09:04:20.482Z,1.20
2019-05-09T09:06:27.703Z,1.23
2019-05-09T09:08:31.598Z,1.50
2019-05-09T09:10:39.103Z,1.47
2019-05-09T09:12:43.981Z,0.70
2019-05-09T09:14:48.744Z,2.13
2019-05-09T09:16:53.543Z,0.90
2019-05-09T09:18:58.594Z,2.57
2019-05-09T09:21:03.447Z,0.97
2019-05-09T09:23:09.141Z,1.40
2019-05-09T09:25:14.248Z,0.87
2019-05-09T09:27:18.994Z,1.60
2019-05-09T09:29:23.734Z,1.03
2019-05-09T09:31:28.644Z,0.83
2019-05-09T09:33:33.480Z,2.57
2019-05-09T09:35:39.897Z,0.43
2019-05-09T09:37:48.868Z,0.60
2019-05-09T09:39:51.105Z,1.07
2019-05-09T09:41:55.860Z,2.00
2019-05-09T09:44:00.575Z,1.47
2019-05-09T09:46:13.456Z,1.97
2019-05-09T09:48:12.407Z,0.83
2019-05-09T09:50:17.705Z,1.83
2019-05-09T09:52:22.642Z,1.00
2019-05-09T09:54:30.212Z,1.93
2019-05-09T09:56:38.466Z,1.17
2019-05-09T09:58:44.111Z,1.37
2019-05-09T10:00:58.397Z,1.10
2019-05-09T10:03:02.767Z,0.90
2019-05-09T10:05:07.887Z,0.63
2019-05-09T10:07:12.866Z,0.70
2019-05-09T10:09:20.435Z,1.90
2019-05-09T10:11:25.173Z,1.53
2019-05-09T10:13:29.883Z,1.13
2019-05-09T10:15:47.405Z,0.63
2019-05-09T10:17:53.347Z,1.57
2019-05-09T10:19:59.702Z,1.67
2019-05-09T10:22:08.623Z,1.37
2019-05-09T10:24:13.375Z,0.90
2019-05-09T10:26:18.141Z,0.73
2019-05-09T10:28:22.910Z,0.47
2019-05-09T10:30:32.569Z,1.43
2019-05-09T10:32:40.407Z,4.23
2019-05-09T10:34:45.182Z,1.90
2019-05-09T10:36:49.868Z,0.40
2019-05-09T10:38:54.650Z,0.40
2019-05-09T10:41:01.584Z,0.70
2019-05-09T10:43:09.100Z,0.50
2019-05-09T10:45:40.906Z,0.50
2019-05-09T10:47:43.896Z,0.67
2019-05-09T10:49:48.878Z,0.70
2019-05-09T10:51:53.762Z,0.40
2019-05-09T10:53:58.985Z,0.70
2019-05-09T10:56:03.816Z,1.33
2019-05-09T10:58:08.578Z,0.90
2019-05-09T11:00:13.435Z,0.93
2019-05-09T11:02:18.199Z,2.80
2019-05-09T11:04:22.980Z,0.60
2019-05-09T11:06:28.737Z,0.70
2019-05-09T11:08:33.834Z,0.60
2019-05-09T11:10:39.885Z,1.83
2019-05-09T11:12:44.782Z,1.23
2019-05-09T11:14:49.528Z,1.37
2019-05-09T11:17:07.813Z,1.10
2019-05-09T11:19:01.173Z,2.20
2019-05-09T11:21:08.358Z,2.57
2019-05-09T11:23:13.051Z,1.33
2019-05-09T11:25:17.844Z,1.00
2019-05-09T11:27:28.125Z,0.60
2019-05-09T11:29:33.151Z,1.07
2019-05-09T11:31:38.550Z,1.63
2019-05-09T11:33:43.378Z,1.63
2019-05-09T11:35:48.170Z,0.80
2019-05-09T11:37:53.016Z,1.00
2019-05-09T11:39:58.125Z,1.20
2019-05-09T11:42:05.811Z,0.53
2019-05-09T11:44:10.487Z,0.77
2019-05-09T11:46:17.735Z,1.63
2019-05-09T11:48:21.646Z,1.50
2019-05-09T11:50:26.477Z,3.67
2019-05-09T11:52:31.225Z,0.90
2019-05-09T11:54:38.928Z,1.17
2019-05-09T11:56:43.800Z,1.90
2019-05-09T11:58:51.829Z,1.33
2019-05-09T12:00:56.652Z,2.17
2019-05-09T12:03:01.416Z,0.80
2019-05-09T12:05:08.512Z,0.87
2019-05-09T12:07:12.774Z,1.67
2019-05-09T12:09:17.527Z,1.80
2019-05-09T12:11:22.360Z,1.00
2019-05-09T12:13:27.070Z,0.67
2019-05-09T12:15:31.817Z,0.80
2019-05-09T12:17:53.169Z,1.40
2019-05-09T12:19:42.972Z,0.93
2019-05-09T12:21:48.454Z,0.80
2019-05-09T12:23:53.357Z,0.67
2019-05-09T12:25:58.276Z,0.87
2019-05-09T12:28:03.095Z,0.40
2019-05-09T12:30:08.177Z,0.40
2019-05-09T12:32:18.415Z,0.77
2019-05-09T12:34:22.237Z,0.53
2019-05-09T12:36:28.663Z,0.57
2019-05-09T12:38:33.646Z,1.77
2019-05-09T12:40:39.013Z,0.93
2019-05-09T12:42:49.648Z,0.90
2019-05-09T12:44:53.181Z,1.43
2019-05-09T12:46:58.260Z,0.70
2019-05-09T12:49:08.729Z,1.20
2019-05-09T12:51:13.651Z,0.97
2019-05-09T12:53:19.058Z,1.10
2019-05-09T12:55:23.786Z,0.40
2019-05-09T12:57:29.014Z,0.80
2019-05-09T12:59:46.372Z,1.27
2019-05-09T13:01:41.371Z,1.40
2019-05-09T13:03:48.433Z,0.40
2019-05-09T13:05:53.019Z,1.37
2019-05-09T13:07:59.418Z,0.83
2019-05-09T13:10:08.962Z,0.57
2019-05-09T13:12:13.930Z,1.23
2019-05-09T13:14:20.304Z,0.70
2019-05-09T13:16:44.265Z,0.80
2019-05-09T13:18:54.480Z,0.93
2019-05-09T13:21:02.115Z,0.60
2019-05-09T13:23:08.876Z,0.73
2019-05-09T13:25:13.354Z,1.20
2019-05-09T13:27:18.935Z,1.00
2019-05-09T13:29:25.083Z,2.77
2019-05-09T13:31:34.713Z,0.90
2019-05-09T13:33:41.297Z,0.53
2019-05-09T13:35:45.521Z,0.97
2019-05-09T13:37:50.358Z,1.37
2019-05-09T13:39:59.990Z,1.63
2019-05-09T13:42:04.877Z,1.53
2019-05-09T13:44:13.467Z,1.87
2019-05-09T13:46:17.939Z,1.83
2019-05-09T13:48:32.620Z,0.90
2019-05-09T13:50:31.388Z,1.63
2019-05-09T13:52:38.009Z,1.43
2019-05-09T13:54:45.318Z,2.13
2019-05-09T13:56:56.571Z,0.97
2019-05-09T13:58:58.054Z,2.67
2019-05-09T14:01:03.812Z,2.20
2019-05-09T14:03:08.857Z,1.33
2019-05-09T14:05:15.045Z,1.47
2019-05-09T14:07:19.827Z,1.87
2019-05-09T14:09:24.500Z,0.87
2019-05-09T14:11:30.909Z,1.87
2019-05-09T14:13:38.301Z,2.23
2019-05-09T14:15:44.933Z,1.10
2019-05-09T14:17:53.686Z,2.60
2019-05-09T14:19:56.724Z,2.23
2019-05-09T14:22:01.679Z,1.27
2019-05-09T14:24:12.246Z,2.43
2019-05-09T14:26:12.880Z,0.93
2019-05-09T14:28:18.713Z,1.30
2019-05-09T14:30:23.484Z,1.27
2019-05-09T14:32:31.156Z,2.70
2019-05-09T14:34:34.646Z,1.13
2019-05-09T14:36:45.000Z,0.70
2019-05-09T14:38:48.585Z,1.47
2019-05-09T14:40:56.385Z,1.27
2019-05-09T14:43:01.150Z,0.73
2019-05-09T14:45:08.413Z,0.93
2019-05-09T14:47:13.312Z,1.20
2019-05-09T14:49:19.078Z,1.40
2019-05-09T14:51:23.874Z,1.90
2019-05-09T14:53:28.635Z,1.17
2019-05-09T14:55:33.361Z,1.17
2019-05-09T14:57:38.487Z,0.80
2019-05-09T14:59:43.234Z,1.50
2019-05-09T15:01:49.577Z,1.83
2019-05-09T15:03:58.521Z,2.87
2019-05-09T15:06:03.249Z,2.30
2019-05-09T15:08:07.957Z,2.50
2019-05-09T15:10:12.909Z,2.17
2019-05-09T15:12:20.518Z,2.40
2019-05-09T15:14:25.310Z,2.30
2019-05-09T15:16:31.548Z,1.90
2019-05-09T15:18:38.634Z,2.73
2019-05-09T15:20:43.446Z,2.67
2019-05-09T15:22:48.125Z,2.20
2019-05-09T15:24:53.018Z,1.77
2019-05-09T15:26:58.098Z,2.60
2019-05-09T15:29:02.936Z,1.70
2019-05-09T15:31:10.766Z,1.70
2019-05-09T15:33:17.589Z,2.87
2019-05-09T15:35:21.927Z,2.13
2019-05-09T15:37:28.622Z,1.63
2019-05-09T15:39:33.104Z,2.10
2019-05-09T15:41:38.666Z,2.00
2019-05-09T15:43:43.620Z,2.03
2019-05-09T15:45:50.027Z,1.03
2019-05-09T15:47:54.777Z,1.53
2019-05-09T15:50:15.488Z,1.13
2019-05-09T15:52:07.473Z,0.77
2019-05-09T15:54:12.934Z,1.43
2019-05-09T15:56:18.942Z,2.13
2019-05-09T15:58:23.963Z,1.30
2019-05-09T16:00:28.707Z,1.20
2019-05-09T16:02:35.237Z,0.90
2019-05-09T16:04:42.848Z,2.00
2019-05-09T16:06:50.088Z,1.20
2019-05-09T16:08:54.052Z,1.80
2019-05-09T16:10:59.217Z,0.50
2019-05-09T16:13:08.165Z,1.03
2019-05-09T16:15:12.982Z,1.03
2019-05-09T16:17:19.104Z,1.20
2019-05-09T16:19:25.172Z,1.47
2019-05-09T16:21:32.943Z,3.63
2019-05-09T16:23:38.084Z,1.57
2019-05-09T16:25:43.000Z,2.33
2019-05-09T16:27:52.846Z,2.53
2019-05-09T16:29:58.033Z,1.37
2019-05-09T16:32:04.009Z,2.00
2019-05-09T16:34:09.832Z,3.97
2019-05-09T16:36:14.663Z,1.77
2019-05-09T16:38:22.340Z,2.67
2019-05-09T16:40:30.112Z,3.30
2019-05-09T16:42:35.076Z,3.23
2019-05-09T16:44:41.874Z,2.93
2019-05-09T16:46:48.429Z,3.40
2019-05-09T16:48:53.457Z,2.60
2019-05-09T16:51:03.129Z,4.50
2019-05-09T16:53:04.626Z,2.97
2019-05-09T16:55:11.498Z,2.83
2019-05-09T16:57:18.218Z,4.17
2019-05-09T16:59:23.065Z,3.07
2019-05-09T17:01:28.521Z,4.60
2019-05-09T17:03:33.273Z,5.27
2019-05-09T17:05:38.047Z,4.20
2019-05-09T17:07:42.817Z,4.23
2019-05-09T17:09:51.344Z,5.37
2019-05-09T17:11:57.691Z,4.17
2019-05-09T17:14:02.590Z,4.43
2019-05-09T17:16:07.992Z,6.27
2019-05-09T17:18:18.630Z,7.03
2019-05-09T17:20:37.829Z,7.30
2019-05-09T17:23:10.972Z,6.27
2019-05-09T17:25:07.981Z,4.00
2019-05-09T17:27:12.893Z,4.30
2019-05-09T17:29:20.684Z,4.30
2019-05-09T17:31:27.560Z,4.70
2019-05-09T17:33:32.006Z,4.60
2019-05-09T17:35:49.283Z,4.43
2019-05-09T17:37:54.401Z,5.03
2019-05-09T17:39:59.246Z,4.00
2019-05-09T17:42:04.023Z,5.57
2019-05-09T17:44:08.756Z,4.70
2019-05-09T17:46:13.521Z,5.63
2019-05-09T17:48:21.280Z,4.23
2019-05-09T17:50:28.504Z,5.60
2019-05-09T17:52:32.510Z,7.43
2019-05-09T17:54:37.974Z,5.10
2019-05-09T17:56:48.240Z,4.47
2019-05-09T17:58:52.330Z,3.83
2019-05-09T18:00:57.667Z,3.63
2019-05-09T18:03:03.325Z,3.33
2019-05-09T18:05:08.351Z,2.57
2019-05-09T18:07:17.841Z,2.47
2019-05-09T18:09:22.182Z,1.80
2019-05-09T18:11:29.992Z,2.67
2019-05-09T18:13:35.022Z,1.80
2019-05-09T18:15:40.944Z,1.47
2019-05-09T18:17:47.711Z,2.63
2019-05-09T18:19:52.050Z,1.30
2019-05-09T18:21:57.876Z,3.40
2019-05-09T18:24:02.856Z,2.73
2019-05-09T18:26:07.980Z,4.00
2019-05-09T18:28:12.949Z,1.90
2019-05-09T18:30:17.794Z,2.00
2019-05-09T18:32:27.524Z,3.10
2019-05-09T18:34:32.408Z,2.13
2019-05-09T18:36:39.921Z,3.30
2019-05-09T18:38:44.973Z,2.43
2019-05-09T18:40:49.742Z,2.67
2019-05-09T18:42:54.973Z,2.60
2019-05-09T18:45:02.178Z,2.47
2019-05-09T18:47:07.839Z,3.10
2019-05-09T18:49:13.192Z,2.67
2019-05-09T18:51:17.961Z,2.30
2019-05-09T18:53:22.679Z,3.27
2019-05-09T18:55:27.419Z,2.50
2019-05-09T18:57:32.217Z,4.37
2019-05-09T18:59:37.082Z,3.57
2019-05-09T19:01:42.062Z,2.60
2019-05-09T19:03:46.815Z,2.47
2019-05-09T19:05:51.754Z,2.50
2019-05-09T19:07:56.501Z,3.17
2019-05-09T19:10:01.277Z,3.73
2019-05-09T19:12:07.181Z,3.10
2019-05-09T19:14:14.708Z,5.37
2019-05-09T19:16:27.456Z,4.20
2019-05-09T19:18:42.502Z,5.10
2019-05-09T19:20:48.905Z,2.83
2019-05-09T19:22:53.683Z,3.67
2019-05-09T19:24:58.458Z,3.00
2019-05-09T19:27:03.558Z,3.20
2019-05-09T19:29:08.923Z,3.43
2019-05-09T19:31:13.694Z,2.60
2019-05-09T19:33:19.174Z,2.40
2019-05-09T19:35:23.946Z,2.13
2019-05-09T19:37:29.693Z,2.20
2019-05-09T19:39:34.488Z,2.20
2019-05-09T19:41:39.177Z,2.97
2019-05-09T19:43:43.934Z,3.33
2019-05-09T19:45:48.698Z,2.70
2019-05-09T19:47:56.471Z,3.07
2019-05-09T19:50:01.525Z,2.20
2019-05-09T19:52:06.445Z,3.40
2019-05-09T19:54:11.206Z,2.43
2019-05-09T19:56:16.004Z,3.23
2019-05-09T19:58:20.752Z,2.30
2019-05-09T20:00:25.560Z,2.50
2019-05-09T20:02:30.337Z,2.10
2019-05-09T20:04:35.177Z,1.63
2019-05-09T20:06:39.970Z,3.47
2019-05-09T20:08:44.920Z,2.20
2019-05-09T20:11:09.016Z,2.17
2019-05-09T20:13:20.842Z,2.53
2019-05-09T20:15:29.393Z,1.87
2019-05-09T20:17:34.386Z,2.97
2019-05-09T20:19:39.404Z,3.13
2019-05-09T20:21:44.380Z,2.67
2019-05-09T20:23:50.164Z,2.07
2019-05-09T20:25:55.151Z,2.70
2019-05-09T20:28:00.119Z,1.87
2019-05-09T20:30:08.246Z,2.07
2019-05-09T20:32:13.024Z,1.33
2019-05-09T20:34:17.727Z,1.67
2019-05-09T20:36:25.666Z,1.97
2019-05-09T20:38:30.607Z,2.13
2019-05-09T20:40:39.999Z,3.80
2019-05-09T20:42:44.941Z,2.60
2019-05-09T20:44:49.894Z,1.97
2019-05-09T20:46:54.965Z,4.10
2019-05-09T20:49:00.002Z,2.33
2019-05-09T20:51:04.933Z,2.10
2019-05-09T20:53:10.211Z,2.23
2019-05-09T20:55:15.167Z,2.80
2019-05-09T20:57:20.189Z,1.43
2019-05-09T20:59:25.204Z,1.70
2019-05-09T21:01:30.072Z,3.27
2019-05-09T21:03:35.057Z,2.50
2019-05-09T21:05:40.275Z,1.67
2019-05-09T21:07:45.316Z,2.87
2019-05-09T21:09:50.368Z,2.27
2019-05-09T21:11:55.283Z,2.40
2019-05-09T21:14:00.359Z,1.40
2019-05-09T21:16:05.296Z,3.23
2019-05-09T21:18:10.423Z,3.00
2019-05-09T21:20:16.272Z,1.67
2019-05-09T21:22:21.383Z,3.37
2019-05-09T21:24:26.313Z,2.57
2019-05-09T21:26:31.313Z,1.87
2019-05-09T21:28:36.274Z,1.50
2019-05-09T21:30:41.228Z,3.40
2019-05-09T21:32:46.185Z,3.13
2019-05-09T21:34:50.945Z,2.43
2019-05-09T21:36:55.712Z,2.70
2019-05-09T21:39:00.487Z,1.63
2019-05-09T21:41:05.246Z,3.30
2019-05-09T21:43:09.945Z,1.47
2019-05-09T21:45:15.267Z,2.50
2019-05-09T21:47:20.027Z,2.97
2019-05-09T21:49:28.378Z,1.57
2019-05-09T21:51:33.216Z,2.53
2019-05-09T21:53:40.823Z,1.67
2019-05-09T21:55:44.394Z,1.93
2019-05-09T21:57:49.088Z,5.17
2019-05-09T21:59:53.785Z,2.07
2019-05-09T22:01:58.530Z,1.20
2019-05-09T22:04:03.406Z,2.30
2019-05-09T22:06:08.279Z,1.90
2019-05-09T22:08:13.120Z,1.00
2019-05-09T22:10:17.967Z,2.73
2019-05-09T22:12:22.861Z,1.53
2019-05-09T22:14:27.616Z,2.00
2019-05-09T22:16:32.462Z,1.90
2019-05-09T22:18:40.003Z,2.33
2019-05-09T22:20:44.786Z,2.73
2019-05-09T22:22:49.536Z,2.87
2019-05-09T22:24:54.390Z,3.17
2019-05-09T22:27:02.103Z,1.37
2019-05-09T22:29:07.404Z,2.07
2019-05-09T22:31:15.228Z,1.73
2019-05-09T22:33:19.942Z,1.43
2019-05-09T22:35:24.839Z,1.87
2019-05-09T22:37:29.588Z,1.50
2019-05-09T22:39:35.724Z,2.83
2019-05-09T22:41:40.478Z,3.73
2019-05-09T22:43:45.225Z,1.87
2019-05-09T22:45:50.011Z,2.07
2019-05-09T22:47:54.756Z,2.47
2019-05-09T22:49:59.460Z,3.53
2019-05-09T22:52:04.526Z,2.73
2019-05-09T22:54:12.597Z,2.43
2019-05-09T22:56:15.677Z,1.73
2019-05-09T22:58:23.192Z,1.30
2019-05-09T23:00:27.892Z,3.40
2019-05-09T23:02:35.276Z,2.67
2019-05-09T23:04:40.018Z,3.07
2019-05-09T23:06:44.781Z,1.57
2019-05-09T23:08:49.556Z,2.40
2019-05-09T23:10:54.308Z,2.13
2019-05-09T23:12:59.082Z,1.90
2019-05-09T23:15:04.141Z,2.50
2019-05-09T23:17:09.542Z,2.43
2019-05-09T23:19:14.286Z,1.80
2019-05-09T23:21:19.068Z,1.40
2019-05-09T23:23:29.187Z,1.67
2019-05-09T23:25:33.948Z,1.43
2019-05-09T23:27:41.738Z,1.63
2019-05-09T23:29:48.069Z,2.53
2019-05-09T23:31:55.034Z,4.53
2019-05-09T23:33:59.802Z,3.17
2019-05-09T23:36:04.692Z,3.60
2019-05-09T23:38:09.474Z,2.97
2019-05-09T23:40:14.248Z,3.33
2019-05-09T23:42:22.036Z,2.53
2019-05-09T23:44:26.790Z,2.30
2019-05-09T23:46:31.573Z,2.60
2019-05-09T23:48:36.308Z,2.30
2019-05-09T23:50:41.069Z,1.73
2019-05-09T23:52:45.765Z,2.43
2019-05-09T23:55:08.360Z,3.67
2019-05-09T23:57:31.036Z,4.80
2019-05-09T23:59:53.679Z,4.20
